createdAt,value
2022-10-01T00:01:52.104Z,74.40
2022-10-01T00:04:19.030Z,74.80
2022-10-01T00:06:45.744Z,74.60
2022-10-01T00:09:12.711Z,74.50
2022-10-01T00:11:39.422Z,75.20
2022-10-01T00:14:06.532Z,75.10
2022-10-01T00:16:33.388Z,75.10
2022-10-01T00:19:00.503Z,75.00
2022-10-01T00:21:31.706Z,75.30
2022-10-01T00:24:04.985Z,75.50
2022-10-01T00:26:37.134Z,75.30
2022-10-01T00:29:11.436Z,75.60
2022-10-01T00:31:38.876Z,75.50
2022-10-01T00:34:06.519Z,75.50
2022-10-01T00:36:33.589Z,76.20
2022-10-01T00:39:00.655Z,76.80
2022-10-01T00:41:35.697Z,76.30
2022-10-01T00:44:33.124Z,76.50
2022-10-01T00:47:23.547Z,76.20
2022-10-01T00:49:56.415Z,76.50
2022-10-01T00:52:31.535Z,76.50
2022-10-01T00:55:07.057Z,77.50
2022-10-01T00:57:34.686Z,76.80
2022-10-01T01:00:04.646Z,76.80
2022-10-01T01:02:33.460Z,76.60
2022-10-01T01:07:33.888Z,76.90
2022-10-01T01:10:05.231Z,77.90
2022-10-01T01:12:34.935Z,77.70
2022-10-01T01:15:26.314Z,77.90
2022-10-01T01:17:56.659Z,77.40
2022-10-01T01:20:34.742Z,77.80
2022-10-01T01:23:16.895Z,77.80
2022-10-01T01:26:00.382Z,78.00
2022-10-01T01:28:33.198Z,77.70
2022-10-01T01:31:11.032Z,78.00
2022-10-01T01:33:40.583Z,77.80
2022-10-01T01:36:16.284Z,78.50
2022-10-01T01:38:49.107Z,78.30
2022-10-01T01:41:17.135Z,78.70
2022-10-01T01:43:47.975Z,78.60
2022-10-01T01:46:17.755Z,78.60
2022-10-01T01:48:49.319Z,78.70
2022-10-01T01:51:33.025Z,78.70
2022-10-01T01:54:02.607Z,79.20
2022-10-01T01:56:34.361Z,79.60
2022-10-01T01:59:01.492Z,79.20
2022-10-01T02:01:46.766Z,79.20
2022-10-01T02:04:18.165Z,79.70
2022-10-01T02:07:21.872Z,79.50
2022-10-01T02:10:18.585Z,79.50
2022-10-01T02:12:56.945Z,79.90
2022-10-01T02:15:52.564Z,79.50
2022-10-01T02:18:43.031Z,79.50
2022-10-01T02:21:27.012Z,80.20
2022-10-01T02:24:05.338Z,79.90
2022-10-01T02:26:35.168Z,80.40
2022-10-01T02:29:07.288Z,79.80
2022-10-01T02:31:35.755Z,80.20
2022-10-01T02:34:08.604Z,80.30
2022-10-01T02:36:41.369Z,81.10
2022-10-01T02:39:09.735Z,81.10
2022-10-01T02:41:37.037Z,80.80
2022-10-01T02:44:17.715Z,80.80
2022-10-01T02:46:47.493Z,80.70
2022-10-01T02:49:17.449Z,81.20
2022-10-01T02:51:46.993Z,81.10
2022-10-01T02:54:24.549Z,80.90
2022-10-01T02:57:10.210Z,81.20
2022-10-01T02:59:36.979Z,82.10
2022-10-01T03:02:04.138Z,81.20
2022-10-01T03:04:31.044Z,81.30
2022-10-01T03:07:03.488Z,81.40
2022-10-01T03:09:37.451Z,82.20
2022-10-01T03:12:04.273Z,81.70
2022-10-01T03:14:32.262Z,81.40
2022-10-01T03:16:58.968Z,81.40
2022-10-01T03:19:25.792Z,82.30
2022-10-01T03:21:52.509Z,81.50
2022-10-01T03:24:19.308Z,81.60
2022-10-01T03:26:48.073Z,82.60
2022-10-01T03:29:15.205Z,81.80
2022-10-01T03:31:42.268Z,81.70
2022-10-01T03:34:13.322Z,81.80
2022-10-01T03:36:40.121Z,81.70
2022-10-01T03:39:06.975Z,81.90
2022-10-01T03:41:34.082Z,81.80
2022-10-01T03:44:03.561Z,81.70
2022-10-01T03:46:33.423Z,81.70
2022-10-01T03:49:00.881Z,81.90
2022-10-01T03:51:31.990Z,81.90
2022-10-01T03:53:59.821Z,82.00
2022-10-01T03:56:26.850Z,82.20
2022-10-01T03:58:53.673Z,82.00
2022-10-01T04:01:20.482Z,82.20
2022-10-01T04:03:50.213Z,82.10
2022-10-01T04:06:17.219Z,82.20
2022-10-01T04:08:46.958Z,82.30
2022-10-01T04:11:13.683Z,82.20
2022-10-01T04:13:40.571Z,83.10
2022-10-01T04:16:07.424Z,82.20
2022-10-01T04:18:36.823Z,82.40
2022-10-01T04:21:03.799Z,82.50
2022-10-01T04:23:30.905Z,82.40
2022-10-01T04:26:04.783Z,82.50
2022-10-01T04:28:32.167Z,82.70
2022-10-01T04:31:17.578Z,82.60
2022-10-01T04:33:50.294Z,82.40
2022-10-01T04:36:17.351Z,82.60
2022-10-01T04:38:44.069Z,82.80
2022-10-01T04:41:10.931Z,82.70
2022-10-01T04:43:37.696Z,82.80
2022-10-01T04:46:04.508Z,82.90
2022-10-01T04:48:31.241Z,82.90
2022-10-01T04:50:58.026Z,82.90
2022-10-01T04:53:25.169Z,82.90
2022-10-01T04:55:51.941Z,83.00
2022-10-01T04:58:18.766Z,83.20
2022-10-01T05:00:45.542Z,83.40
2022-10-01T05:03:12.384Z,83.30
2022-10-01T05:05:41.918Z,83.30
2022-10-01T05:08:08.697Z,83.40
2022-10-01T05:10:35.585Z,83.40
2022-10-01T05:13:02.737Z,83.50
2022-10-01T05:15:30.226Z,83.40
2022-10-01T05:17:57.491Z,83.60
2022-10-01T05:20:26.129Z,84.50
2022-10-01T05:22:54.219Z,83.70
2022-10-01T05:25:21.146Z,83.70
2022-10-01T05:27:48.417Z,83.80
2022-10-01T05:30:24.227Z,83.80
2022-10-01T05:32:56.358Z,83.80
2022-10-01T05:35:25.667Z,83.90
2022-10-01T05:37:57.654Z,83.90
2022-10-01T05:40:27.441Z,84.10
2022-10-01T05:42:58.521Z,84.10
2022-10-01T05:45:30.077Z,84.10
2022-10-01T05:48:01.979Z,84.20
2022-10-01T05:50:33.063Z,84.20
2022-10-01T05:53:01.062Z,84.30
2022-10-01T05:55:33.424Z,84.30
2022-10-01T05:58:05.840Z,84.20
2022-10-01T06:00:33.684Z,84.30
2022-10-01T06:03:02.524Z,84.30
2022-10-01T06:05:31.090Z,84.40
2022-10-01T06:07:58.288Z,84.60
2022-10-01T06:10:26.297Z,84.60
2022-10-01T06:12:57.924Z,84.60
2022-10-01T06:15:24.609Z,84.70
2022-10-01T06:17:53.453Z,84.80
2022-10-01T06:20:20.636Z,84.70
2022-10-01T06:22:55.011Z,84.80
2022-10-01T06:25:22.019Z,84.90
2022-10-01T06:27:57.893Z,84.90
2022-10-01T06:30:29.029Z,84.90
2022-10-01T06:33:06.919Z,84.90
2022-10-01T06:35:35.183Z,84.90
2022-10-01T06:38:02.473Z,85.10
2022-10-01T06:40:30.767Z,85.10
2022-10-01T06:42:58.480Z,86.00
2022-10-01T06:45:29.735Z,85.30
2022-10-01T06:47:58.496Z,85.30
2022-10-01T06:50:26.040Z,85.40
2022-10-01T06:52:53.369Z,85.10
2022-10-01T06:55:23.677Z,85.30
2022-10-01T06:57:59.080Z,85.30
2022-10-01T07:00:27.658Z,85.30
2022-10-01T07:02:55.833Z,85.30
2022-10-01T07:05:26.476Z,85.40
2022-10-01T07:07:53.798Z,85.60
2022-10-01T07:10:21.887Z,85.60
2022-10-01T07:12:49.663Z,85.80
2022-10-01T07:15:18.792Z,85.60
2022-10-01T07:17:48.398Z,85.70
2022-10-01T07:20:17.755Z,85.80
2022-10-01T07:22:45.733Z,85.70
2022-10-01T07:25:13.316Z,85.80
2022-10-01T07:27:40.190Z,85.70
2022-10-01T07:30:07.993Z,85.50
2022-10-01T07:32:35.436Z,85.60
2022-10-01T07:35:05.968Z,85.40
2022-10-01T07:37:32.816Z,85.60
2022-10-01T07:40:01.995Z,85.60
2022-10-01T07:42:33.989Z,85.40
2022-10-01T07:45:07.797Z,85.40
2022-10-01T07:47:35.777Z,85.50
2022-10-01T07:50:03.551Z,85.60
2022-10-01T07:52:31.542Z,85.60
2022-10-01T07:55:03.570Z,85.70
2022-10-01T07:57:30.536Z,85.80
2022-10-01T07:59:57.337Z,85.70
2022-10-01T08:02:24.293Z,86.00
2022-10-01T08:05:09.544Z,86.00
2022-10-01T08:07:36.942Z,86.20
2022-10-01T08:10:07.011Z,86.10
2022-10-01T08:12:34.144Z,86.30
2022-10-01T08:15:02.461Z,86.30
2022-10-01T08:17:29.698Z,86.30
2022-10-01T08:19:56.406Z,86.20
2022-10-01T08:22:23.289Z,86.30
2022-10-01T08:24:50.078Z,86.20
2022-10-01T08:27:16.836Z,86.20
2022-10-01T08:29:43.604Z,86.20
2022-10-01T08:32:10.971Z,86.10
2022-10-01T08:34:37.814Z,86.20
2022-10-01T08:37:04.526Z,86.30
2022-10-01T08:39:31.253Z,86.40
2022-10-01T08:42:19.126Z,87.30
2022-10-01T08:44:46.663Z,86.50
2022-10-01T08:47:37.807Z,86.60
2022-10-01T08:50:24.218Z,87.30
2022-10-01T08:52:56.223Z,87.60
2022-10-01T08:55:27.093Z,87.60
2022-10-01T08:58:00.491Z,87.20
2022-10-01T09:00:28.766Z,86.50
2022-10-01T09:03:00.424Z,86.30
2022-10-01T09:05:36.009Z,86.20
2022-10-01T09:08:22.480Z,85.80
2022-10-01T09:11:03.646Z,85.40
2022-10-01T09:13:51.789Z,84.20
2022-10-01T09:16:22.315Z,83.60
2022-10-01T09:19:16.921Z,82.90
2022-10-01T09:22:02.151Z,82.70
2022-10-01T09:24:50.592Z,82.00
2022-10-01T09:27:26.751Z,82.50
2022-10-01T09:30:04.978Z,82.50
2022-10-01T09:33:05.494Z,82.60
2022-10-01T09:35:48.862Z,83.10
2022-10-01T09:38:18.677Z,82.70
2022-10-01T09:40:55.073Z,82.60
2022-10-01T09:43:33.704Z,82.80
2022-10-01T09:46:00.909Z,83.10
2022-10-01T09:48:41.349Z,83.00
2022-10-01T09:51:12.974Z,82.30
2022-10-01T09:53:47.462Z,81.90
2022-10-01T09:56:39.084Z,81.90
2022-10-01T09:59:14.708Z,82.00
2022-10-01T10:01:48.965Z,82.00
2022-10-01T10:04:23.875Z,81.00
2022-10-01T10:06:53.351Z,80.90
2022-10-01T10:09:28.095Z,80.80
2022-10-01T10:11:56.672Z,80.40
2022-10-01T10:14:35.438Z,80.30
2022-10-01T10:17:16.671Z,79.60
2022-10-01T10:19:54.346Z,79.50
2022-10-01T10:22:28.067Z,78.60
2022-10-01T10:24:58.899Z,77.80
2022-10-01T10:27:29.162Z,77.70
2022-10-01T10:30:16.193Z,77.90
2022-10-01T10:32:44.350Z,78.00
2022-10-01T10:35:25.703Z,77.70
2022-10-01T10:37:54.958Z,76.60
2022-10-01T10:40:39.928Z,76.30
2022-10-01T10:43:16.495Z,76.50
2022-10-01T10:45:46.897Z,76.50
2022-10-01T10:48:18.232Z,75.80
2022-10-01T10:50:46.881Z,75.40
2022-10-01T10:53:22.897Z,75.60
2022-10-01T10:56:06.562Z,75.30
2022-10-01T10:58:39.781Z,75.10
2022-10-01T11:01:10.126Z,74.60
2022-10-01T11:03:40.458Z,74.60
2022-10-01T11:06:13.289Z,74.90
2022-10-01T11:08:40.510Z,74.60
2022-10-01T11:11:46.704Z,74.60
2022-10-01T11:14:31.279Z,74.10
2022-10-01T11:17:35.692Z,73.60
2022-10-01T11:20:20.505Z,73.40
2022-10-01T11:22:59.876Z,73.40
2022-10-01T11:25:38.293Z,72.90
2022-10-01T11:28:29.751Z,72.00
2022-10-01T11:31:20.293Z,71.90
2022-10-01T11:34:30.604Z,71.50
2022-10-01T11:37:03.198Z,72.50
2022-10-01T11:39:32.006Z,70.60
2022-10-01T11:42:11.629Z,70.60
2022-10-01T11:44:44.292Z,70.10
2022-10-01T11:47:24.294Z,70.40
2022-10-01T11:50:15.312Z,70.60
2022-10-01T11:52:48.137Z,70.70
2022-10-01T11:55:54.212Z,71.20
2022-10-01T11:58:52.641Z,71.40
2022-10-01T12:01:41.189Z,72.10
2022-10-01T12:04:32.583Z,72.00
2022-10-01T12:07:24.064Z,71.80
2022-10-01T12:10:14.615Z,71.30
2022-10-01T12:12:58.773Z,71.20
2022-10-01T12:15:44.792Z,71.20
2022-10-01T12:18:36.420Z,71.80
2022-10-01T12:21:07.898Z,72.00
2022-10-01T12:23:41.613Z,71.70
2022-10-01T12:26:49.053Z,71.50
2022-10-01T12:29:46.871Z,71.10
2022-10-01T12:32:42.138Z,70.40
2022-10-01T12:35:42.520Z,69.40
2022-10-01T12:38:20.622Z,68.20
2022-10-01T12:41:06.112Z,68.70
2022-10-01T12:43:58.462Z,68.70
2022-10-01T12:46:40.218Z,68.50
2022-10-01T12:49:12.842Z,67.90
2022-10-01T12:51:55.374Z,67.80
2022-10-01T12:54:55.399Z,66.90
2022-10-01T12:57:54.500Z,67.40
2022-10-01T13:00:25.020Z,67.30
2022-10-01T13:03:16.802Z,66.50
2022-10-01T13:06:30.299Z,66.80
2022-10-01T13:09:20.079Z,65.90
2022-10-01T13:12:18.806Z,66.00
2022-10-01T13:14:46.999Z,65.60
2022-10-01T13:17:38.682Z,66.30
2022-10-01T13:20:51.688Z,66.10
2022-10-01T13:23:48.614Z,66.00
2022-10-01T13:26:26.509Z,65.90
2022-10-01T13:29:14.608Z,65.80
2022-10-01T13:31:58.125Z,65.60
2022-10-01T13:34:36.371Z,65.90
2022-10-01T13:37:31.297Z,65.80
2022-10-01T13:39:59.682Z,65.30
2022-10-01T13:42:30.926Z,65.00
2022-10-01T13:45:04.839Z,64.50
2022-10-01T13:47:33.892Z,64.00
2022-10-01T13:50:07.201Z,63.70
2022-10-01T13:52:34.791Z,63.60
2022-10-01T13:55:02.747Z,62.90
2022-10-01T13:57:36.366Z,63.10
2022-10-01T14:00:22.549Z,62.80
2022-10-01T14:03:01.165Z,63.10
2022-10-01T14:05:38.832Z,62.70
2022-10-01T14:08:31.321Z,62.40
2022-10-01T14:11:25.788Z,62.70
2022-10-01T14:14:11.516Z,63.10
2022-10-01T14:16:42.023Z,63.20
2022-10-01T14:19:10.067Z,63.10
2022-10-01T14:21:51.875Z,62.40
2022-10-01T14:24:47.823Z,62.40
2022-10-01T14:27:17.571Z,62.80
2022-10-01T14:30:06.155Z,63.20
2022-10-01T14:32:51.028Z,63.20
2022-10-01T14:35:28.308Z,63.60
2022-10-01T14:38:00.619Z,63.10
2022-10-01T14:40:37.187Z,62.80
2022-10-01T14:43:20.173Z,62.40
2022-10-01T14:45:58.849Z,62.10
2022-10-01T14:48:27.887Z,62.00
2022-10-01T14:50:59.560Z,61.90
2022-10-01T14:53:28.758Z,61.30
2022-10-01T14:55:58.979Z,61.40
2022-10-01T14:58:31.093Z,61.50
2022-10-01T15:00:59.215Z,61.50
2022-10-01T15:03:26.361Z,61.40
2022-10-01T15:06:10.519Z,61.80
2022-10-01T15:08:43.530Z,62.00
2022-10-01T15:11:31.719Z,61.80
2022-10-01T15:14:05.012Z,62.30
2022-10-01T15:16:33.400Z,62.30
2022-10-01T15:19:03.818Z,62.30
2022-10-01T15:21:35.408Z,61.90
2022-10-01T15:24:04.586Z,62.10
2022-10-01T15:26:33.034Z,61.90
2022-10-01T15:29:12.167Z,62.00
2022-10-01T15:31:40.049Z,62.10
2022-10-01T15:34:11.083Z,62.40
2022-10-01T15:36:39.251Z,62.40
2022-10-01T15:39:19.113Z,62.20
2022-10-01T15:41:54.036Z,62.40
2022-10-01T15:44:45.556Z,62.60
2022-10-01T15:47:19.445Z,62.80
2022-10-01T15:50:02.602Z,62.90
2022-10-01T15:52:51.605Z,62.70
2022-10-01T15:55:22.511Z,63.00
2022-10-01T15:58:35.237Z,63.00
2022-10-01T16:01:06.663Z,63.10
2022-10-01T16:03:37.364Z,63.40
2022-10-01T16:06:08.247Z,63.40
2022-10-01T16:08:49.111Z,63.50
2022-10-01T16:11:21.279Z,63.70
2022-10-01T16:13:50.682Z,63.90
2022-10-01T16:16:23.226Z,64.10
2022-10-01T16:18:58.067Z,64.20
2022-10-01T16:21:26.129Z,64.30
2022-10-01T16:23:54.822Z,64.50
2022-10-01T16:26:27.404Z,64.60
2022-10-01T16:28:56.821Z,64.70
2022-10-01T16:31:27.471Z,64.70
2022-10-01T16:33:54.188Z,64.90
2022-10-01T16:36:24.339Z,64.90
2022-10-01T16:38:51.517Z,65.10
2022-10-01T16:41:22.675Z,65.00
2022-10-01T16:43:51.271Z,65.30
2022-10-01T16:46:18.111Z,65.30
2022-10-01T16:48:48.952Z,65.50
2022-10-01T16:51:15.720Z,65.60
2022-10-01T16:53:45.908Z,65.70
2022-10-01T16:56:13.625Z,65.80
2022-10-01T16:58:41.224Z,65.90
2022-10-01T17:01:17.065Z,66.20
2022-10-01T17:03:43.932Z,66.30
2022-10-01T17:06:10.707Z,66.30
2022-10-01T17:08:37.394Z,66.50
2022-10-01T17:11:04.661Z,66.50
2022-10-01T17:13:33.900Z,66.70
2022-10-01T17:16:01.568Z,66.80
2022-10-01T17:18:28.507Z,66.90
2022-10-01T17:20:56.255Z,66.90
2022-10-01T17:23:23.296Z,67.20
2022-10-01T17:25:50.688Z,67.30
2022-10-01T17:28:21.934Z,67.40
2022-10-01T17:30:49.851Z,67.50
2022-10-01T17:33:21.882Z,67.70
2022-10-01T17:35:58.261Z,67.80
2022-10-01T17:38:25.334Z,67.80
2022-10-01T17:40:56.466Z,68.00
2022-10-01T17:43:23.805Z,68.80
2022-10-01T17:46:04.189Z,68.20
2022-10-01T17:48:31.035Z,68.30
2022-10-01T17:51:09.064Z,68.20
2022-10-01T17:53:42.188Z,68.20
2022-10-01T17:56:14.623Z,68.30
2022-10-01T17:58:45.400Z,68.30
2022-10-01T18:01:16.299Z,68.50
2022-10-01T18:03:43.411Z,68.60
2022-10-01T18:06:13.762Z,68.50
2022-10-01T18:08:54.565Z,68.70
2022-10-01T18:11:23.257Z,68.70
2022-10-01T18:13:50.938Z,68.80
2022-10-01T18:16:19.431Z,68.90
2022-10-01T18:21:33.557Z,69.20
2022-10-01T18:24:04.483Z,69.20
2022-10-01T18:26:32.353Z,69.20
2022-10-01T18:28:59.775Z,69.50
2022-10-01T18:31:40.550Z,69.30
2022-10-01T18:34:38.195Z,69.30
2022-10-01T18:37:05.904Z,69.40
2022-10-01T18:39:45.513Z,69.40
2022-10-01T18:42:20.607Z,69.50
2022-10-01T18:45:18.125Z,69.50
2022-10-01T18:47:53.951Z,69.50
2022-10-01T18:50:49.240Z,69.60
2022-10-01T18:53:40.188Z,69.60
2022-10-01T18:56:23.384Z,69.70
2022-10-01T18:59:40.892Z,69.80
2022-10-01T19:02:33.784Z,69.60
2022-10-01T19:05:29.059Z,69.70
2022-10-01T19:08:05.252Z,69.70
2022-10-01T19:10:39.250Z,70.00
2022-10-01T19:13:25.091Z,70.00
2022-10-01T19:16:22.375Z,70.10
2022-10-01T19:19:16.300Z,70.20
2022-10-01T19:22:22.188Z,70.20
2022-10-01T19:25:02.501Z,70.30
2022-10-01T19:27:35.514Z,70.40
2022-10-01T19:30:06.918Z,70.40
2022-10-01T19:32:41.001Z,70.60
2022-10-01T19:35:21.636Z,70.70
2022-10-01T19:38:01.423Z,70.90
2022-10-01T19:40:31.250Z,70.90
2022-10-01T19:43:23.993Z,71.00
2022-10-01T19:45:56.057Z,71.20
2022-10-01T19:48:41.869Z,71.20
2022-10-01T19:51:12.846Z,71.20
2022-10-01T19:53:44.878Z,71.50
2022-10-01T19:56:18.756Z,71.50
2022-10-01T19:58:46.123Z,71.50
2022-10-01T20:01:20.865Z,71.70
2022-10-01T20:04:00.856Z,71.80
2022-10-01T20:06:41.326Z,71.80
2022-10-01T20:09:21.171Z,71.90
2022-10-01T20:11:59.885Z,72.00
2022-10-01T20:14:59.323Z,72.10
2022-10-01T20:17:44.832Z,72.20
2022-10-01T20:20:27.832Z,72.20
2022-10-01T20:23:03.562Z,72.40
2022-10-01T20:25:48.427Z,72.60
2022-10-01T20:28:19.279Z,72.70
2022-10-01T20:31:14.333Z,72.80
2022-10-01T20:33:59.707Z,72.80
2022-10-01T20:36:52.721Z,73.00
2022-10-01T20:39:29.073Z,73.10
2022-10-01T20:41:56.324Z,73.20
2022-10-01T20:44:33.280Z,73.20
2022-10-01T20:47:16.945Z,73.50
2022-10-01T20:49:50.928Z,73.30
2022-10-01T20:52:47.333Z,74.50
2022-10-01T20:55:26.530Z,73.70
2022-10-01T20:57:58.499Z,73.90
2022-10-01T21:00:27.192Z,73.90
2022-10-01T21:03:21.646Z,74.00
2022-10-01T21:05:57.073Z,74.10
2022-10-01T21:08:48.912Z,74.30
2022-10-01T21:11:27.580Z,74.10
2022-10-01T21:14:19.635Z,74.40
2022-10-01T21:17:00.573Z,74.50
2022-10-01T21:19:57.641Z,74.50
2022-10-01T21:22:45.865Z,74.50
2022-10-01T21:25:34.168Z,74.70
2022-10-01T21:28:24.262Z,74.60
2022-10-01T21:31:09.640Z,74.80
2022-10-01T21:33:51.375Z,74.80
2022-10-01T21:36:25.944Z,75.00
2022-10-01T21:39:00.124Z,75.10
2022-10-01T21:41:52.203Z,75.30
2022-10-01T21:44:28.636Z,75.20
2022-10-01T21:47:18.453Z,75.30
2022-10-01T21:49:54.399Z,75.50
2022-10-01T21:52:29.384Z,75.50
2022-10-01T21:55:21.101Z,75.70
2022-10-01T21:58:16.329Z,75.80
2022-10-01T22:00:48.553Z,75.80
2022-10-01T22:03:36.227Z,76.00
2022-10-01T22:06:17.716Z,75.80
2022-10-01T22:09:26.847Z,76.10
2022-10-01T22:11:58.283Z,76.10
2022-10-01T22:14:27.396Z,76.20
2022-10-01T22:16:57.392Z,76.40
2022-10-01T22:19:40.078Z,76.60
2022-10-01T22:22:14.589Z,76.60
2022-10-01T22:24:49.372Z,76.80
2022-10-01T22:27:27.192Z,76.90
2022-10-01T22:29:59.243Z,77.00
2022-10-01T22:32:29.315Z,77.00
2022-10-01T22:35:04.408Z,77.10
2022-10-01T22:37:37.511Z,77.30
2022-10-01T22:40:13.580Z,77.40
2022-10-01T22:42:52.085Z,77.30
2022-10-01T22:45:21.152Z,77.50
2022-10-01T22:48:24.787Z,77.50
2022-10-01T22:51:15.555Z,77.60
2022-10-01T22:54:11.970Z,77.50
2022-10-01T22:56:48.276Z,77.80
2022-10-01T22:59:47.628Z,77.80
2022-10-01T23:02:30.810Z,77.80
2022-10-01T23:05:31.342Z,77.90
2022-10-01T23:08:24.396Z,77.90
2022-10-01T23:10:51.056Z,77.90
2022-10-01T23:13:23.936Z,78.10
2022-10-01T23:16:08.904Z,78.30
2022-10-01T23:18:52.384Z,78.40
2022-10-01T23:21:38.682Z,78.30
2022-10-01T23:24:14.548Z,78.30
2022-10-01T23:27:19.852Z,78.20
2022-10-01T23:30:04.258Z,77.80
2022-10-01T23:33:05.761Z,78.10
2022-10-01T23:35:47.481Z,78.10
2022-10-01T23:38:28.422Z,78.00
2022-10-01T23:41:02.702Z,78.00
2022-10-01T23:43:37.488Z,78.10
2022-10-01T23:46:11.875Z,78.20
2022-10-01T23:48:57.754Z,78.40
2022-10-01T23:51:27.018Z,78.20
2022-10-01T23:54:05.063Z,78.60
2022-10-01T23:57:12.813Z,78.70
2022-10-01T23:59:58.981Z,78.60
